Time;durP1;ratioP1;P1;durP2;ratioP2;P2;SDS_P1;SDS_P2;PMS_P1;PMS_P2;Temp;Humidity;BMP_temperature;BMP_pressure;BME280_temperature;BME280_humidity;BME280_pressure;Samples;Min_cycle;Max_cycle;Signal;HPM_P1;HPM_P2
2021/05/01 00:00:48;;;;;;;42.77;19.47;;;0.80;99.90;;;;;;5188675;28;20226;-71
2021/05/01 00:03:20;;;;;;;43.20;20.37;;;0.80;99.90;;;;;;5188761;28;20677;-71
2021/05/01 00:05:51;;;;;;;37.53;19.93;;;0.80;99.90;;;;;;5188774;28;20210;-70
2021/05/01 00:08:23;;;;;;;41.23;21.27;;;0.80;99.90;;;;;;5188248;28;20303;-70
2021/05/01 00:11:03;;;;;;;53.30;20.80;;;0.70;99.90;;;;;;5188281;28;20207;-71
2021/05/01 00:13:35;;;;;;;38.97;20.37;;;0.80;99.90;;;;;;5188011;28;20213;-70
2021/05/01 00:16:07;;;;;;;43.00;20.83;;;0.80;99.90;;;;;;5188808;28;20215;-71
2021/05/01 00:18:38;;;;;;;43.33;21.53;;;0.70;99.90;;;;;;5188063;28;20211;-70
2021/05/01 00:21:09;;;;;;;41.40;21.43;;;0.70;99.90;;;;;;5203264;28;20227;-70
2021/05/01 00:23:41;;;;;;;49.80;24.30;;;0.70;99.90;;;;;;5188239;28;20375;-71
2021/05/01 00:26:12;;;;;;;45.80;22.17;;;0.70;99.90;;;;;;5188119;28;20203;-69
2021/05/01 00:28:44;;;;;;;38.33;21.80;;;0.60;99.90;;;;;;5203048;28;20226;-69
2021/05/01 00:31:18;;;;;;;49.80;23.17;;;0.60;99.90;;;;;;5187850;28;20668;-71
2021/05/01 00:33:50;;;;;;;48.67;21.50;;;0.60;99.90;;;;;;5188237;28;20206;-70
2021/05/01 00:36:21;;;;;;;42.03;21.73;;;0.60;99.90;;;;;;5188791;28;20218;-70
2021/05/01 00:38:54;;;;;;;40.83;21.23;;;0.50;99.90;;;;;;5188154;28;20214;-69
2021/05/01 00:41:26;;;;;;;46.57;21.43;;;0.50;99.90;;;;;;5188037;28;20233;-70
2021/05/01 00:43:58;;;;;;;43.97;22.10;;;0.50;99.90;;;;;;5187835;28;20214;-69
2021/05/01 00:46:30;;;;;;;44.43;21.47;;;0.40;99.90;;;;;;5186931;28;20213;-71
2021/05/01 00:49:01;;;;;;;39.70;20.63;;;0.40;99.90;;;;;;5187748;28;20203;-73
2021/05/01 00:51:33;;;;;;;39.50;19.90;;;0.40;99.90;;;;;;5187551;28;20207;-69
2021/05/01 00:54:05;;;;;;;38.20;18.93;;;0.30;99.90;;;;;;5187633;28;20206;-70
2021/05/01 00:56:36;;;;;;;38.27;19.03;;;0.30;99.90;;;;;;5202824;28;20210;-69
2021/05/01 00:59:07;;;;;;;39.23;19.07;;;0.30;99.90;;;;;;5187459;28;20214;-69
2021/05/01 01:01:48;;;;;;;36.67;19.77;;;0.20;99.90;;;;;;5187336;28;20222;-69
2021/05/01 01:04:19;;;;;;;43.20;19.40;;;0.20;99.90;;;;;;5187192;28;20234;-69
2021/05/01 01:06:51;;;;;;;37.53;19.80;;;0.20;99.90;;;;;;5187136;28;20213;-70
2021/05/01 01:09:22;;;;;;;38.33;18.67;;;0.20;99.90;;;;;;5187085;28;20219;-71
2021/05/01 01:11:54;;;;;;;40.73;19.50;;;0.20;99.90;;;;;;5187706;28;20206;-69
2021/05/01 01:14:25;;;;;;;35.87;18.03;;;0.10;99.90;;;;;;5187316;28;20199;-70
2021/05/01 01:16:56;;;;;;;35.17;18.90;;;0.10;99.90;;;;;;5187033;28;20217;-69
2021/05/01 01:19:28;;;;;;;42.27;19.53;;;0.10;99.90;;;;;;5187259;28;20199;-68
2021/05/01 01:22:00;;;;;;;37.27;18.97;;;0.10;99.90;;;;;;5186967;28;20235;-69
2021/05/01 01:24:31;;;;;;;35.23;18.87;;;0.00;99.90;;;;;;5186970;28;20218;-69
2021/05/01 01:27:03;;;;;;;34.80;19.20;;;0.00;99.90;;;;;;5187143;28;20614;-68
2021/05/01 01:29:39;;;;;;;36.33;18.80;;;0.00;99.90;;;;;;5186927;28;20203;-71
2021/05/01 01:32:12;;;;;;;35.73;18.53;;;0.00;99.90;;;;;;5186959;28;20272;-68
2021/05/01 01:34:44;;;;;;;35.57;18.40;;;0.00;99.90;;;;;;5187148;28;20203;-69
2021/05/01 01:37:16;;;;;;;40.73;18.07;;;0.00;99.90;;;;;;5187193;28;20215;-69
2021/05/01 01:39:47;;;;;;;31.13;16.90;;;-0.10;99.90;;;;;;5186756;28;20241;-69
2021/05/01 01:42:18;;;;;;;36.60;18.70;;;-0.10;99.90;;;;;;5186635;28;20233;-69
2021/05/01 01:44:50;;;;;;;37.33;18.37;;;-0.10;99.90;;;;;;5186676;28;20203;-70
2021/05/01 01:47:21;;;;;;;34.83;18.03;;;-0.10;99.90;;;;;;5186583;28;20206;-68
2021/05/01 01:49:53;;;;;;;40.90;18.87;;;0.00;99.90;;;;;;5186805;28;20669;-70
2021/05/01 01:52:24;;;;;;;34.23;16.70;;;0.00;99.90;;;;;;5186747;28;20203;-70
2021/05/01 01:54:56;;;;;;;34.73;16.83;;;0.00;99.90;;;;;;5186682;28;20213;-70
2021/05/01 01:57:27;;;;;;;30.70;16.83;;;0.00;99.90;;;;;;5189217;28;20216;-68
2021/05/01 01:59:58;;;;;;;37.80;17.10;;;0.00;99.90;;;;;;5190881;28;20210;-71
2021/05/01 02:02:35;;;;;;;33.20;16.17;;;0.00;99.90;;;;;;5191060;28;20313;-68
2021/05/01 02:05:08;;;;;;;30.63;16.13;;;0.00;99.90;;;;;;5190763;28;20272;-69
2021/05/01 02:07:40;;;;;;;26.87;15.00;;;0.00;99.90;;;;;;5206489;28;20215;-69
2021/05/01 02:10:12;;;;;;;32.23;14.60;;;0.00;99.90;;;;;;5190748;28;20198;-70
2021/05/01 02:12:44;;;;;;;33.67;14.87;;;0.10;99.90;;;;;;5190843;28;20203;-71
2021/05/01 02:15:21;;;;;;;29.27;14.93;;;0.10;99.90;;;;;;5190708;28;20226;-70
2021/05/01 02:17:54;;;;;;;27.37;13.53;;;0.10;99.90;;;;;;5190847;28;20202;-71
2021/05/01 02:20:34;;;;;;;23.37;11.40;;;0.10;99.90;;;;;;5190597;28;20265;-72
2021/05/01 02:23:06;;;;;;;19.87;9.80;;;0.20;99.90;;;;;;5190438;28;20221;-69
2021/05/01 02:25:38;;;;;;;21.70;9.43;;;0.20;99.90;;;;;;5190498;28;20214;-69
2021/05/01 02:28:09;;;;;;;19.17;8.73;;;0.40;99.90;;;;;;5190484;28;20206;-70
2021/05/01 02:30:41;;;;;;;17.43;8.90;;;0.40;99.90;;;;;;5190462;28;20203;-71
2021/05/01 02:33:13;;;;;;;18.67;10.07;;;0.50;99.90;;;;;;5190877;28;20207;-70
2021/05/01 02:35:44;;;;;;;20.53;10.67;;;0.50;99.90;;;;;;5190147;28;20210;-70
2021/05/01 02:38:16;;;;;;;22.47;11.87;;;0.40;99.90;;;;;;5190339;28;20226;-69
2021/05/01 02:40:48;;;;;;;22.90;11.90;;;0.40;99.90;;;;;;5190317;28;20722;-70
2021/05/01 02:43:19;;;;;;;28.33;12.80;;;0.30;99.90;;;;;;5190103;28;20210;-70
2021/05/01 02:45:50;;;;;;;24.73;13.40;;;0.30;99.90;;;;;;5190273;28;20202;-71
2021/05/01 02:48:22;;;;;;;25.50;13.20;;;0.20;99.90;;;;;;5190054;28;20211;-72
2021/05/01 02:50:53;;;;;;;26.23;14.30;;;0.20;99.90;;;;;;5189692;28;20296;-71
2021/05/01 02:53:24;;;;;;;25.67;13.53;;;0.20;99.90;;;;;;5189745;28;20198;-70
2021/05/01 02:55:56;;;;;;;30.17;14.67;;;0.10;99.90;;;;;;5189660;28;20207;-70
2021/05/01 02:58:27;;;;;;;30.67;13.67;;;0.10;99.90;;;;;;5189787;28;20199;-70
2021/05/01 03:00:59;;;;;;;28.67;14.70;;;0.10;99.90;;;;;;5189846;28;20323;-70
2021/05/01 03:03:30;;;;;;;27.90;14.13;;;0.10;99.90;;;;;;5189889;28;20202;-69
2021/05/01 03:06:02;;;;;;;28.43;14.23;;;0.10;99.90;;;;;;5190034;28;20233;-70
2021/05/01 03:08:33;;;;;;;21.53;12.73;;;0.10;99.90;;;;;;5189361;28;20566;-70
2021/05/01 03:11:05;;;;;;;25.93;11.97;;;0.00;99.90;;;;;;5189731;28;20233;-69
2021/05/01 03:13:37;;;;;;;21.77;10.87;;;0.00;99.90;;;;;;5189592;28;20274;-69
2021/05/01 03:16:08;;;;;;;20.07;10.93;;;0.10;99.90;;;;;;5189605;28;20218;-71
2021/05/01 03:18:39;;;;;;;22.40;11.27;;;0.10;99.90;;;;;;5189321;28;20658;-70
2021/05/01 03:21:11;;;;;;;20.27;10.50;;;0.10;99.90;;;;;;5189409;28;20257;-68
2021/05/01 03:23:42;;;;;;;18.83;9.50;;;0.10;99.90;;;;;;5189492;28;20213;-70
2021/05/01 03:26:16;;;;;;;18.30;9.60;;;0.10;99.90;;;;;;5188895;28;20207;-70
2021/05/01 03:28:47;;;;;;;18.93;9.53;;;0.20;99.90;;;;;;5188984;28;20207;-69
2021/05/01 03:31:19;;;;;;;21.93;10.30;;;0.20;99.90;;;;;;5189071;28;20218;-70
2021/05/01 03:33:50;;;;;;;19.50;9.70;;;0.20;99.90;;;;;;5189351;28;20210;-70
2021/05/01 03:36:22;;;;;;;20.77;10.00;;;0.30;99.90;;;;;;5189277;28;20559;-70
2021/05/01 03:38:53;;;;;;;21.37;9.67;;;0.40;99.90;;;;;;5188956;28;20210;-70
2021/05/01 03:41:24;;;;;;;19.47;10.03;;;0.40;99.90;;;;;;5188786;28;20230;-70
2021/05/01 03:43:56;;;;;;;23.27;12.00;;;0.50;99.90;;;;;;5188607;28;20206;-70
2021/05/01 03:46:28;;;;;;;20.90;11.07;;;0.50;99.90;;;;;;5188844;28;20206;-70
2021/05/01 03:48:59;;;;;;;22.87;11.77;;;0.60;99.90;;;;;;5188859;28;20210;-70
2021/05/01 03:51:30;;;;;;;28.33;12.53;;;0.60;99.90;;;;;;5188749;28;20665;-68
2021/05/01 03:54:02;;;;;;;26.87;12.53;;;0.70;99.90;;;;;;5188677;28;20215;-71
2021/05/01 03:56:34;;;;;;;26.57;12.63;;;0.80;99.90;;;;;;5188906;28;20210;-71
2021/05/01 03:59:06;;;;;;;21.23;12.03;;;0.80;99.90;;;;;;5188545;28;20202;-70
2021/05/01 04:01:37;;;;;;;26.10;12.23;;;0.90;99.90;;;;;;5188616;28;20595;-70
2021/05/01 04:04:10;;;;;;;21.70;11.63;;;1.00;99.90;;;;;;5187355;28;20210;-71
2021/05/01 04:06:41;;;;;;;25.50;12.40;;;1.10;99.90;;;;;;5189056;28;20225;-70
2021/05/01 04:09:13;;;;;;;19.37;9.73;;;1.20;99.90;;;;;;5188246;28;20210;-70
2021/05/01 04:11:45;;;;;;;17.00;9.10;;;1.30;99.90;;;;;;5188337;28;20203;-71
2021/05/01 04:14:16;;;;;;;18.27;8.40;;;1.40;99.90;;;;;;5188045;28;20214;-71
2021/05/01 04:16:47;;;;;;;18.67;9.53;;;1.60;99.90;;;;;;5188188;28;20205;-70
2021/05/01 04:19:19;;;;;;;18.07;8.00;;;1.80;99.90;;;;;;5187855;28;20580;-70
2021/05/01 04:21:51;;;;;;;14.83;7.00;;;2.00;99.90;;;;;;5187577;28;20703;-70
2021/05/01 04:24:22;;;;;;;13.37;6.43;;;2.20;99.90;;;;;;5188024;28;20218;-70
2021/05/01 04:26:54;;;;;;;17.27;7.87;;;2.40;99.90;;;;;;5188317;28;20206;-68
2021/05/01 04:29:25;;;;;;;16.20;7.40;;;2.50;99.90;;;;;;5187874;28;20203;-70
2021/05/01 04:31:57;;;;;;;16.00;6.70;;;2.70;99.90;;;;;;5187989;28;20214;-71
2021/05/01 04:34:28;;;;;;;10.93;6.07;;;2.80;99.90;;;;;;5187991;28;20225;-72
2021/05/01 04:37:00;;;;;;;10.87;6.03;;;3.00;99.90;;;;;;5187805;28;20218;-69
2021/05/01 04:39:31;;;;;;;13.53;6.77;;;3.10;99.90;;;;;;5188462;28;20320;-70
2021/05/01 04:42:03;;;;;;;11.83;5.50;;;3.30;99.90;;;;;;5188216;28;20683;-72
2021/05/01 04:44:39;;;;;;;11.00;5.33;;;3.40;99.90;;;;;;5187790;28;20202;-72
2021/05/01 04:47:11;;;;;;;8.67;4.63;;;3.50;99.90;;;;;;5187517;28;20211;-70
2021/05/01 04:49:43;;;;;;;7.63;4.77;;;3.60;99.90;;;;;;5202767;28;20203;-71
2021/05/01 04:52:15;;;;;;;14.50;4.67;;;3.70;99.90;;;;;;5187584;28;20273;-70
2021/05/01 04:54:46;;;;;;;10.77;4.70;;;3.80;99.90;;;;;;5187693;28;20569;-72
2021/05/01 04:57:18;;;;;;;8.77;4.20;;;3.90;99.90;;;;;;5202539;28;20578;-73
2021/05/01 04:59:49;;;;;;;7.73;4.60;;;4.00;99.90;;;;;;5187206;28;20207;-70
2021/05/01 05:02:21;;;;;;;6.67;3.67;;;4.00;99.90;;;;;;5187728;28;20241;-71
2021/05/01 05:04:52;;;;;;;9.37;3.70;;;4.10;99.90;;;;;;5187294;28;20207;-69
2021/05/01 05:07:23;;;;;;;7.03;4.10;;;4.10;99.90;;;;;;5187448;28;20206;-70
2021/05/01 05:09:55;;;;;;;9.57;4.03;;;4.20;99.90;;;;;;5187312;28;20569;-73
2021/05/01 05:12:26;;;;;;;7.43;3.90;;;4.30;99.90;;;;;;5187216;28;20213;-70
2021/05/01 05:14:58;;;;;;;9.77;4.17;;;4.40;99.90;;;;;;5187265;28;20198;-71
2021/05/01 05:17:29;;;;;;;7.43;3.67;;;4.50;99.90;;;;;;5187033;28;20218;-72
2021/05/01 05:20:01;;;;;;;8.63;4.43;;;4.70;99.90;;;;;;5187083;28;20203;-69
2021/05/01 05:22:32;;;;;;;9.13;4.13;;;4.80;99.90;;;;;;5187355;28;20234;-68
2021/05/01 05:25:05;;;;;;;6.73;4.17;;;4.90;99.90;;;;;;5187097;28;20661;-69
2021/05/01 05:27:36;;;;;;;6.57;4.17;;;5.10;99.90;;;;;;5186820;28;20217;-71
2021/05/01 05:30:08;;;;;;;9.40;4.17;;;5.20;99.90;;;;;;5186836;28;20309;-71
2021/05/01 05:32:39;;;;;;;7.53;4.07;;;5.30;99.90;;;;;;5186626;28;20207;-71
2021/05/01 05:35:11;;;;;;;5.70;3.73;;;5.50;99.90;;;;;;5186761;28;20210;-70
2021/05/01 05:37:42;;;;;;;7.70;4.10;;;5.60;99.90;;;;;;5186652;28;20218;-69
2021/05/01 05:40:15;;;;;;;7.33;3.40;;;5.80;99.90;;;;;;5186541;28;20270;-69
2021/05/01 05:42:49;;;;;;;5.83;3.33;;;6.00;99.90;;;;;;5186633;28;20241;-71
2021/05/01 05:45:29;;;;;;;5.20;3.03;;;6.10;99.90;;;;;;5187345;28;20208;-70
2021/05/01 05:48:01;;;;;;;3.80;2.47;;;6.20;99.90;;;;;;5186594;28;20661;-69
2021/05/01 05:50:33;;;;;;;4.00;2.23;;;6.10;99.90;;;;;;5186802;28;20217;-70
2021/05/01 05:53:04;;;;;;;6.77;2.07;;;6.30;99.90;;;;;;5186904;28;20210;-70
2021/05/01 05:55:36;;;;;;;2.73;1.77;;;6.40;99.90;;;;;;5186607;28;20238;-71
2021/05/01 05:58:08;;;;;;;2.30;1.40;;;6.40;99.90;;;;;;5186480;28;20210;-71
2021/05/01 06:00:39;;;;;;;5.27;1.50;;;6.50;99.90;;;;;;5186603;28;20214;-69
2021/05/01 06:03:11;;;;;;;2.83;1.30;;;6.60;99.90;;;;;;5186581;28;20712;-70
2021/05/01 06:05:48;;;;;;;1.47;1.07;;;6.60;99.90;;;;;;5186922;28;20269;-70
2021/05/01 06:08:20;;;;;;;2.30;1.50;;;6.70;99.90;;;;;;5186685;28;20206;-71
2021/05/01 06:10:53;;;;;;;2.17;0.87;;;6.80;99.90;;;;;;5186538;28;20566;-70
2021/05/01 06:13:24;;;;;;;2.10;0.80;;;7.40;99.90;;;;;;5186355;28;20207;-70
2021/05/01 06:15:57;;;;;;;3.63;0.80;;;8.80;99.90;;;;;;5186564;28;20621;-69
2021/05/01 06:18:35;;;;;;;0.90;0.60;;;10.00;99.90;;;;;;5186165;28;20211;-71
2021/05/01 06:21:13;;;;;;;2.30;0.97;;;11.20;99.90;;;;;;5186837;28;20261;-70
2021/05/01 06:23:45;;;;;;;2.13;0.70;;;12.10;99.90;;;;;;5186464;28;20542;-71
2021/05/01 06:26:18;;;;;;;0.70;0.70;;;13.30;99.90;;;;;;5187089;28;20538;-72
2021/05/01 06:28:50;;;;;;;1.37;0.83;;;14.50;99.90;;;;;;5186627;28;20294;-70
2021/05/01 06:31:23;;;;;;;1.60;0.60;;;15.10;97.40;;;;;;5186405;28;20199;-70
2021/05/01 06:33:55;;;;;;;2.22;0.60;;;15.90;94.70;;;;;;5199297;28;20213;-70
2021/05/01 06:36:28;;;;;;;2.00;0.65;;;16.20;90.60;;;;;;5206927;28;20679;-72
2021/05/01 06:39:04;;;;;;;1.67;0.60;;;16.40;90.30;;;;;;5206697;28;20253;-70
2021/05/01 06:41:40;;;;;;;1.83;0.65;;;16.70;90.00;;;;;;5203947;28;20646;-68
2021/05/01 06:44:18;;;;;;;1.45;0.40;;;17.70;85.40;;;;;;5207464;28;20209;-71
2021/05/01 06:46:51;;;;;;;0.85;0.40;;;18.40;79.70;;;;;;5210598;28;20209;-69
2021/05/01 06:49:28;;;;;;;2.28;0.68;;;18.90;77.00;;;;;;5193952;28;20215;-70
2021/05/01 06:52:04;;;;;;;1.08;0.47;;;19.70;72.50;;;;;;5195936;28;20193;-68
2021/05/01 06:54:35;;;;;;;1.90;0.70;;;19.60;70.20;;;;;;5209578;28;20201;-68
2021/05/01 06:57:07;;;;;;;0.85;0.40;;;18.40;67.00;;;;;;5210241;28;20267;-69
2021/05/01 06:59:41;;;;;;;0.57;0.40;;;17.70;70.00;;;;;;5210306;28;20355;-69
2021/05/01 07:02:13;;;;;;;1.05;0.50;;;18.00;70.90;;;;;;5210100;28;20240;-69
2021/05/01 07:04:52;;;;;;;0.88;0.50;;;18.80;69.00;;;;;;5210142;28;20202;-69
2021/05/01 07:07:25;;;;;;;1.50;0.47;;;18.60;68.10;;;;;;5210432;28;20206;-69
2021/05/01 07:09:57;;;;;;;1.38;0.47;;;18.40;65.40;;;;;;5209948;28;20707;-71
2021/05/01 07:12:28;;;;;;;1.58;0.50;;;18.00;66.90;;;;;;5209975;28;20206;-68
2021/05/01 07:15:04;;;;;;;2.78;0.63;;;17.50;66.90;;;;;;5209839;28;20214;-69
2021/05/01 07:17:37;;;;;;;1.45;0.65;;;17.30;65.70;;;;;;5209882;28;20577;-70
2021/05/01 07:20:12;;;;;;;1.90;0.43;;;17.80;66.90;;;;;;5209547;28;20795;-68
2021/05/01 07:22:43;;;;;;;1.90;0.57;;;17.30;65.90;;;;;;5208957;28;20232;-68
2021/05/01 07:25:15;;;;;;;0.90;0.50;;;16.80;66.20;;;;;;5209542;28;20229;-67
2021/05/01 07:27:54;;;;;;;2.15;0.63;;;16.40;65.80;;;;;;5209255;28;20214;-65
2021/05/01 07:30:27;;;;;;;2.13;0.88;;;16.20;68.60;;;;;;5209578;28;20205;-66
2021/05/01 07:33:10;;;;;;;1.58;0.50;;;16.40;70.50;;;;;;5209131;28;20194;-66
2021/05/01 07:35:45;;;;;;;0.80;0.50;;;16.10;70.20;;;;;;5209421;28;20202;-68
2021/05/01 07:38:17;;;;;;;1.30;0.60;;;16.10;73.40;;;;;;5208051;28;20194;-72
2021/05/01 07:40:51;;;;;;;2.15;0.80;;;15.40;70.90;;;;;;5208948;28;20324;-69
2021/05/01 07:43:23;;;;;;;1.37;0.60;;;14.30;73.30;;;;;;5208608;28;20233;-68
2021/05/01 07:45:57;;;;;;;2.83;0.97;;;13.30;70.00;;;;;;5208999;28;20546;-67
2021/05/01 07:48:29;;;;;;;1.67;0.83;;;12.30;74.60;;;;;;5208717;28;20205;-66
2021/05/01 07:51:01;;;;;;;2.70;1.00;;;11.50;77.10;;;;;;5209054;28;20197;-65
2021/05/01 07:53:32;;;;;;;1.90;0.87;;;11.10;78.20;;;;;;5208936;28;20384;-71
2021/05/01 07:56:04;;;;;;;1.83;1.00;;;10.60;78.20;;;;;;5208511;28;20210;-70
2021/05/01 07:58:35;;;;;;;2.10;1.03;;;10.10;79.10;;;;;;5208809;28;20665;-71
2021/05/01 08:01:07;;;;;;;3.37;1.20;;;9.90;81.70;;;;;;5208679;28;20615;-67
2021/05/01 08:03:39;;;;;;;2.57;0.90;;;10.20;85.20;;;;;;5208820;28;20570;-78
2021/05/01 08:06:10;;;;;;;1.43;0.60;;;10.40;84.60;;;;;;5208704;28;20206;-73
2021/05/01 08:08:42;;;;;;;3.20;1.03;;;10.50;84.30;;;;;;5208750;28;20198;-77
2021/05/01 08:11:13;;;;;;;2.67;1.20;;;10.40;85.10;;;;;;5208628;28;20206;-77
2021/05/01 08:13:45;;;;;;;3.23;0.90;;;10.30;87.30;;;;;;5208778;28;20212;-77
2021/05/01 08:16:16;;;;;;;1.40;0.70;;;10.10;88.00;;;;;;5208286;28;20213;-73
2021/05/01 08:18:51;;;;;;;1.67;1.00;;;10.00;84.30;;;;;;5208632;28;20206;-73
2021/05/01 08:21:22;;;;;;;2.90;1.27;;;9.80;85.40;;;;;;5206862;28;20225;-73
2021/05/01 08:23:54;;;;;;;1.00;0.80;;;9.80;89.30;;;;;;5208392;28;20190;-72
2021/05/01 08:26:25;;;;;;;1.27;0.77;;;9.90;91.30;;;;;;5208516;28;20555;-71
2021/05/01 08:28:56;;;;;;;2.60;1.10;;;10.10;90.80;;;;;;5208022;28;20320;-72
2021/05/01 08:31:28;;;;;;;1.67;1.10;;;10.40;91.10;;;;;;5208148;28;20545;-70
2021/05/01 08:33:59;;;;;;;3.73;1.00;;;10.60;91.40;;;;;;5207878;28;20574;-72
2021/05/01 08:36:31;;;;;;;1.37;1.00;;;10.70;90.40;;;;;;5223419;28;20213;-67
2021/05/01 08:39:03;;;;;;;4.30;1.20;;;10.60;89.60;;;;;;5207889;28;20755;-67
2021/05/01 08:41:35;;;;;;;1.57;0.87;;;10.70;90.70;;;;;;5206613;28;20707;-69
2021/05/01 08:44:10;;;;;;;2.60;1.10;;;10.60;90.20;;;;;;5207942;28;20642;-65
2021/05/01 08:46:45;;;;;;;2.43;0.80;;;10.60;90.20;;;;;;5205123;28;20241;-70
2021/05/01 08:49:17;;;;;;;2.23;1.17;;;10.40;88.50;;;;;;5202901;28;20206;-73
2021/05/01 08:51:48;;;;;;;1.47;0.70;;;9.80;88.50;;;;;;5207228;28;20201;-76
2021/05/01 08:54:20;;;;;;;1.50;1.10;;;9.40;89.70;;;;;;5207836;28;20566;-76
2021/05/01 08:56:51;;;;;;;2.80;0.87;;;9.20;90.00;;;;;;5207422;28;20216;-72
2021/05/01 08:59:23;;;;;;;3.90;1.20;;;9.00;90.50;;;;;;5207410;28;20205;-72
2021/05/01 09:01:58;;;;;;;1.03;0.77;;;9.20;91.80;;;;;;5207571;28;20222;-73
2021/05/01 09:04:45;;;;;;;1.40;0.87;;;9.40;90.80;;;;;;5207461;28;20211;-74
2021/05/01 09:07:19;;;;;;;2.23;0.97;;;9.20;90.80;;;;;;5172832;28;20623;-70
2021/05/01 09:09:59;;;;;;;2.13;1.00;;;9.50;90.20;;;;;;5157317;28;20194;-73
2021/05/01 09:12:57;;;;;;;1.30;0.90;;;9.70;91.20;;;;;;5207204;28;20220;-76
2021/05/01 09:15:29;;;;;;;3.70;1.23;;;10.00;90.90;;;;;;5203973;28;20265;-74
2021/05/01 09:18:04;;;;;;;2.80;1.10;;;10.40;91.90;;;;;;5199223;28;20209;-74
2021/05/01 09:20:36;;;;;;;1.73;0.90;;;10.40;87.10;;;;;;5206454;28;20198;-77
2021/05/01 09:23:08;;;;;;;3.97;1.20;;;10.10;87.70;;;;;;5203729;28;20222;-76
2021/05/01 09:26:05;;;;;;;2.87;1.57;;;10.10;89.60;;;;;;5204398;28;20186;-75
2021/05/01 09:28:45;;;;;;;2.67;1.00;;;10.00;86.70;;;;;;5205670;28;20720;-73
2021/05/01 09:31:18;;;;;;;3.43;1.43;;;9.80;89.10;;;;;;5204131;28;20201;-72
2021/05/01 09:33:51;;;;;;;2.87;1.40;;;9.60;90.60;;;;;;5204751;28;20202;-72
2021/05/01 09:36:25;;;;;;;2.00;1.37;;;9.40;90.20;;;;;;5205869;28;20194;-73
2021/05/01 09:39:07;;;;;;;2.73;1.57;;;9.40;91.50;;;;;;5203609;28;20653;-72
2021/05/01 09:41:40;;;;;;;2.97;1.60;;;9.50;90.70;;;;;;5206796;28;20230;-72
2021/05/01 09:44:14;;;;;;;2.73;1.70;;;9.50;91.20;;;;;;5206782;28;20213;-72
2021/05/01 09:46:52;;;;;;;3.33;1.40;;;9.50;91.30;;;;;;5206701;28;20233;-71
2021/05/01 09:49:33;;;;;;;1.77;1.40;;;9.50;91.10;;;;;;5206879;28;20206;-71
2021/05/01 09:52:10;;;;;;;3.57;1.67;;;9.30;91.20;;;;;;5207099;28;20201;-72
2021/05/01 09:54:45;;;;;;;4.17;1.40;;;9.00;91.30;;;;;;5207101;28;20664;-72
2021/05/01 09:57:18;;;;;;;2.03;1.33;;;9.00;91.00;;;;;;5206941;28;20201;-71
2021/05/01 09:59:52;;;;;;;2.80;1.30;;;9.10;91.50;;;;;;5206783;28;20218;-71
2021/05/01 10:02:35;;;;;;;2.03;1.30;;;9.20;91.30;;;;;;5206756;28;20304;-72
2021/05/01 10:05:11;;;;;;;1.90;1.40;;;9.10;91.80;;;;;;5206886;28;20228;-72
2021/05/01 10:07:47;;;;;;;2.90;1.60;;;8.90;91.20;;;;;;5206875;28;20683;-71
2021/05/01 10:10:19;;;;;;;3.13;1.87;;;8.90;92.40;;;;;;5222099;28;20574;-72
2021/05/01 10:12:51;;;;;;;3.53;1.57;;;9.00;93.20;;;;;;5206729;28;20201;-73
2021/05/01 10:15:24;;;;;;;2.37;1.53;;;9.10;93.70;;;;;;5206719;28;20228;-71
2021/05/01 10:18:12;;;;;;;4.17;1.97;;;9.00;93.50;;;;;;5206092;28;20197;-70
2021/05/01 10:20:46;;;;;;;1.70;1.40;;;8.90;93.30;;;;;;5210763;28;20308;-72
2021/05/01 10:23:20;;;;;;;3.07;1.97;;;9.00;94.20;;;;;;5210725;28;20236;-70
2021/05/01 10:25:51;;;;;;;2.67;1.50;;;9.10;94.20;;;;;;5210634;28;20681;-71
2021/05/01 10:28:23;;;;;;;3.37;1.60;;;9.00;94.00;;;;;;5210939;28;20206;-71
2021/05/01 10:30:56;;;;;;;3.40;1.50;;;9.00;94.00;;;;;;5210693;28;20210;-71
2021/05/01 10:33:33;;;;;;;3.10;1.40;;;9.00;94.10;;;;;;5210805;28;20187;-72
2021/05/01 10:36:14;;;;;;;3.33;1.30;;;9.10;93.90;;;;;;5210355;28;20205;-71
2021/05/01 10:39:05;;;;;;;3.03;1.40;;;9.00;94.40;;;;;;5210204;28;20213;-72
2021/05/01 10:41:37;;;;;;;3.87;1.53;;;8.90;93.30;;;;;;5210772;28;20219;-71
2021/05/01 10:44:09;;;;;;;3.47;1.40;;;8.70;94.30;;;;;;5210060;28;20287;-71
2021/05/01 10:46:41;;;;;;;2.87;1.40;;;8.70;94.80;;;;;;5210433;28;20206;-71
2021/05/01 10:49:13;;;;;;;3.83;1.50;;;8.60;94.20;;;;;;5210253;28;20210;-74
2021/05/01 10:51:46;;;;;;;2.37;1.53;;;8.50;94.20;;;;;;5210398;28;20221;-71
2021/05/01 10:54:22;;;;;;;2.40;1.40;;;8.60;94.30;;;;;;5210257;28;20209;-70
2021/05/01 10:56:56;;;;;;;4.40;1.50;;;8.70;94.80;;;;;;5225812;28;20655;-71
2021/05/01 10:59:30;;;;;;;3.67;1.70;;;8.60;94.90;;;;;;5209984;28;20209;-71
2021/05/01 11:02:12;;;;;;;3.83;1.60;;;8.50;94.50;;;;;;5209861;28;20237;-70
2021/05/01 11:04:51;;;;;;;3.87;1.50;;;8.70;95.00;;;;;;5209742;28;20225;-71
2021/05/01 11:07:50;;;;;;;3.90;1.50;;;8.60;95.20;;;;;;5210236;28;20202;-72
2021/05/01 11:10:23;;;;;;;2.07;1.10;;;8.60;95.20;;;;;;5187020;28;20246;-73
2021/05/01 11:12:57;;;;;;;3.00;1.30;;;8.60;94.60;;;;;;5186990;28;20202;-72
2021/05/01 11:15:43;;;;;;;3.90;1.57;;;8.50;95.00;;;;;;5187048;28;20213;-70
2021/05/01 11:18:20;;;;;;;3.80;1.67;;;8.50;95.30;;;;;;5172140;28;20291;-72
2021/05/01 11:20:56;;;;;;;2.10;1.40;;;8.60;94.70;;;;;;5186878;28;20556;-72
2021/05/01 11:23:35;;;;;;;2.27;1.93;;;8.50;94.80;;;;;;5186950;28;20640;-71
2021/05/01 11:26:08;;;;;;;2.40;1.53;;;8.50;94.70;;;;;;5186965;28;20273;-71
2021/05/01 11:28:41;;;;;;;3.37;1.37;;;8.60;95.00;;;;;;5186318;28;20764;-71
2021/05/01 11:31:13;;;;;;;2.37;1.50;;;8.70;94.80;;;;;;5186789;28;20195;-70
2021/05/01 11:33:46;;;;;;;2.20;1.20;;;8.70;94.20;;;;;;5186822;28;20203;-71
2021/05/01 11:36:23;;;;;;;3.40;1.63;;;8.60;94.40;;;;;;5186726;28;20206;-69
2021/05/01 11:38:55;;;;;;;2.73;1.40;;;8.70;94.40;;;;;;5186342;28;20217;-73
2021/05/01 11:41:29;;;;;;;3.17;1.67;;;8.80;94.00;;;;;;5186404;28;20213;-72
2021/05/01 11:44:00;;;;;;;4.03;1.53;;;8.80;93.90;;;;;;5186212;28;20361;-71
2021/05/01 11:46:36;;;;;;;2.07;1.53;;;8.80;93.60;;;;;;5190921;28;20206;-72
2021/05/01 11:49:08;;;;;;;5.73;1.63;;;8.80;93.90;;;;;;5208859;28;20190;-73
2021/05/01 11:51:51;;;;;;;2.70;1.80;;;8.80;94.40;;;;;;5209156;28;20233;-75
2021/05/01 11:54:32;;;;;;;2.00;1.63;;;8.90;93.50;;;;;;5208898;28;20645;-75
2021/05/01 11:57:28;;;;;;;3.80;1.90;;;8.90;93.50;;;;;;5208791;28;20622;-73
2021/05/01 12:00:00;;;;;;;4.60;1.70;;;8.90;93.50;;;;;;5208860;28;20690;-71
2021/05/01 12:02:44;;;;;;;3.80;1.80;;;8.90;92.90;;;;;;5209169;28;20214;-71
2021/05/01 12:05:24;;;;;;;2.77;1.60;;;8.90;93.20;;;;;;5208927;28;20202;-72
2021/05/01 12:08:07;;;;;;;2.17;1.70;;;8.90;92.10;;;;;;5208552;28;20220;-71
2021/05/01 12:10:44;;;;;;;2.13;1.47;;;8.90;93.00;;;;;;5208577;28;20206;-72
2021/05/01 12:13:33;;;;;;;2.73;1.50;;;9.10;93.10;;;;;;5208551;28;20216;-71
2021/05/01 12:16:16;;;;;;;2.77;1.57;;;9.10;93.10;;;;;;5208545;28;20210;-71
2021/05/01 12:18:53;;;;;;;4.23;1.70;;;9.10;92.90;;;;;;5208686;28;20199;-70
2021/05/01 12:21:29;;;;;;;2.40;1.43;;;9.00;92.40;;;;;;5208671;28;20240;-72
2021/05/01 12:24:01;;;;;;;2.97;1.87;;;9.00;93.30;;;;;;5208509;28;20544;-71
2021/05/01 12:26:54;;;;;;;2.43;1.70;;;9.00;93.20;;;;;;5208382;28;20210;-71
2021/05/01 12:29:31;;;;;;;4.13;1.40;;;9.20;93.70;;;;;;5223074;28;20719;-71
2021/05/01 12:32:06;;;;;;;2.67;1.70;;;9.20;92.70;;;;;;5208313;28;20293;-71
2021/05/01 12:34:49;;;;;;;3.13;1.70;;;9.20;92.60;;;;;;5208124;28;20240;-71
2021/05/01 12:37:22;;;;;;;2.10;1.60;;;9.10;92.60;;;;;;5208276;28;20213;-71
2021/05/01 12:40:00;;;;;;;2.90;1.70;;;9.00;92.20;;;;;;5208107;28;20608;-73
2021/05/01 12:42:33;;;;;;;2.30;1.53;;;9.00;92.90;;;;;;5207405;28;20229;-71
2021/05/01 12:45:32;;;;;;;2.27;1.60;;;9.00;93.20;;;;;;5208132;28;20566;-71
2021/05/01 12:48:04;;;;;;;2.80;1.60;;;9.00;92.20;;;;;;5185266;28;20662;-70
2021/05/01 12:50:36;;;;;;;3.50;1.50;;;9.00;92.20;;;;;;5185253;28;20199;-71
2021/05/01 12:53:27;;;;;;;3.87;1.93;;;9.00;92.30;;;;;;5185566;28;20349;-72
2021/05/01 12:56:34;;;;;;;2.23;1.30;;;9.20;91.60;;;;;;5185612;28;20218;-71
2021/05/01 12:59:20;;;;;;;2.10;1.30;;;9.10;91.50;;;;;;5185536;28;20202;-71
2021/05/01 13:01:54;;;;;;;2.17;1.57;;;9.10;92.40;;;;;;5185038;28;20349;-74
2021/05/01 13:04:36;;;;;;;4.40;1.93;;;9.10;92.10;;;;;;5184965;28;20194;-72
2021/05/01 13:07:13;;;;;;;2.27;1.80;;;9.30;92.10;;;;;;5185106;28;20294;-72
2021/05/01 13:09:47;;;;;;;2.30;1.43;;;9.50;92.00;;;;;;5184647;28;20638;-71
2021/05/01 13:12:26;;;;;;;2.60;1.60;;;9.60;91.70;;;;;;5184580;28;20203;-72
2021/05/01 13:15:00;;;;;;;3.27;1.30;;;9.60;91.00;;;;;;5184618;28;20202;-73
2021/05/01 13:17:35;;;;;;;2.00;1.47;;;9.50;90.20;;;;;;5184568;28;20311;-72
2021/05/01 13:20:14;;;;;;;2.37;1.60;;;9.60;90.60;;;;;;5184475;28;20195;-72
2021/05/01 13:22:48;;;;;;;2.20;1.43;;;9.60;90.60;;;;;;5184453;28;20249;-70